createdAt,value
2023-03-15T00:02:09.781Z,101014.16
2023-03-15T00:06:11.990Z,101022.91
2023-03-15T00:10:13.732Z,101021.88
2023-03-15T00:14:15.839Z,101027.25
2023-03-15T00:18:19.651Z,101034.34
2023-03-15T00:22:23.390Z,101033.31
2023-03-15T00:26:25.234Z,101039.75
2023-03-15T00:30:27.479Z,101045.97
2023-03-15T00:34:29.168Z,101050.34
2023-03-15T00:43:05.809Z,101064.66
2023-03-15T00:47:07.636Z,101065.06
2023-03-15T00:51:15.085Z,101052.81
2023-03-15T00:55:19.932Z,101057.59
2023-03-15T00:59:23.271Z,101062.97
2023-03-15T01:03:25.087Z,101066.72
2023-03-15T01:07:26.908Z,101077.69
2023-03-15T01:11:28.692Z,101072.53
2023-03-15T01:15:31.373Z,101088.72
2023-03-15T01:19:33.913Z,101095.97
2023-03-15T01:23:35.776Z,101104.09
2023-03-15T01:27:37.583Z,101106.78
2023-03-15T01:31:39.844Z,101114.88
2023-03-15T01:35:41.679Z,101115.72
2023-03-15T01:39:43.630Z,101121.94
2023-03-15T01:43:47.491Z,101131.69
2023-03-15T01:47:50.214Z,101127.34
2023-03-15T01:51:58.101Z,101136.25
2023-03-15T01:56:04.316Z,101144.34
2023-03-15T02:00:14.000Z,101148.94
2023-03-15T02:04:48.948Z,101144.56
2023-03-15T02:09:15.163Z,101157.25
2023-03-15T02:13:22.894Z,101151.84
2023-03-15T02:17:33.494Z,101162.63
2023-03-15T02:22:01.996Z,101167.22
2023-03-15T02:26:29.849Z,101169.25
2023-03-15T02:30:34.066Z,101179.41
2023-03-15T02:34:37.796Z,101176.09
2023-03-15T02:38:39.535Z,101184.59
2023-03-15T02:42:42.596Z,101183.09
2023-03-15T02:46:46.836Z,101175.44
2023-03-15T02:50:48.619Z,101182.88
2023-03-15T02:54:50.447Z,101194.91
2023-03-15T02:58:52.237Z,101190.53
2023-03-15T03:02:54.642Z,101202.38
2023-03-15T03:06:56.377Z,101216.88
2023-03-15T03:11:04.444Z,101222.69
2023-03-15T03:15:07.551Z,101231.78
2023-03-15T03:19:15.248Z,101244.66
2023-03-15T03:23:18.368Z,101261.91
2023-03-15T03:27:20.065Z,101266.63
2023-03-15T03:31:25.337Z,101273.25
2023-03-15T03:35:28.529Z,101276.16
2023-03-15T03:39:31.061Z,101278.16
2023-03-15T03:43:35.735Z,101276.50
2023-03-15T03:47:37.771Z,101283.13
2023-03-15T03:51:39.577Z,101282.28
2023-03-15T03:55:42.823Z,101295.97
2023-03-15T03:59:44.910Z,101315.03
2023-03-15T04:03:46.776Z,101324.16
2023-03-15T04:07:51.695Z,101325.41
2023-03-15T04:11:54.019Z,101328.28
2023-03-15T04:15:57.897Z,101329.31
2023-03-15T04:20:07.336Z,101330.34
2023-03-15T04:24:11.963Z,101342.16
2023-03-15T04:28:32.968Z,101341.53
2023-03-15T04:32:44.931Z,101347.09
2023-03-15T04:36:58.470Z,101348.97
2023-03-15T04:41:27.108Z,101359.94
2023-03-15T04:45:37.125Z,101371.78
2023-03-15T04:49:56.285Z,101377.34
2023-03-15T04:54:16.698Z,101376.50
2023-03-15T04:58:31.333Z,101383.09
2023-03-15T05:03:08.386Z,101379.59
2023-03-15T05:07:34.481Z,101394.94
2023-03-15T05:11:47.739Z,101386.19
2023-03-15T05:16:09.056Z,101399.88
2023-03-15T05:20:35.592Z,101408.16
2023-03-15T05:24:55.816Z,101410.84
2023-03-15T05:29:24.419Z,101414.56
2023-03-15T05:33:49.022Z,101419.31
2023-03-15T05:38:27.029Z,101420.34
2023-03-15T05:42:47.672Z,101426.75
2023-03-15T05:46:58.356Z,101432.13
2023-03-15T05:51:29.465Z,101435.88
2023-03-15T05:55:49.033Z,101443.28
2023-03-15T06:00:06.933Z,101453.25
2023-03-15T06:04:26.258Z,101464.03
2023-03-15T06:08:30.525Z,101472.31
2023-03-15T06:12:32.376Z,101477.72
2023-03-15T06:16:34.833Z,101491.34
2023-03-15T06:20:38.779Z,101495.91
2023-03-15T06:24:45.015Z,101512.28
2023-03-15T06:28:48.570Z,101514.16
2023-03-15T06:32:51.182Z,101522.25
2023-03-15T06:36:54.214Z,101529.50
2023-03-15T06:40:56.474Z,101536.75
2023-03-15T06:44:58.776Z,101536.09
2023-03-15T06:49:01.196Z,101535.25
2023-03-15T06:53:03.060Z,101534.44
2023-03-15T06:57:04.968Z,101547.91
2023-03-15T07:01:06.779Z,101557.00
2023-03-15T07:05:09.180Z,101558.84
2023-03-15T07:09:10.906Z,101563.41
2023-03-15T07:13:13.383Z,101571.69
2023-03-15T07:17:15.611Z,101573.56
2023-03-15T07:21:17.411Z,101576.25
2023-03-15T07:25:24.034Z,101572.69
2023-03-15T07:29:25.924Z,101579.94
2023-03-15T07:33:29.632Z,101583.66
2023-03-15T07:37:31.448Z,101583.66
2023-03-15T07:41:33.301Z,101590.09
2023-03-15T07:45:50.206Z,101602.75
2023-03-15T07:49:51.977Z,101620.78
2023-03-15T07:53:53.790Z,101626.16
2023-03-15T07:57:55.530Z,101628.84
2023-03-15T08:01:57.280Z,101630.88
2023-03-15T08:05:59.081Z,101641.66
2023-03-15T08:10:01.795Z,101644.38
2023-03-15T08:14:03.537Z,101652.44
2023-03-15T08:18:06.558Z,101666.94
2023-03-15T08:22:08.380Z,101657.16
2023-03-15T08:26:10.113Z,101671.50
2023-03-15T08:30:14.167Z,101681.44
2023-03-15T08:34:16.310Z,101678.72
2023-03-15T08:38:18.097Z,101683.28
2023-03-15T08:42:20.013Z,101685.16
2023-03-15T08:46:22.273Z,101688.88
2023-03-15T08:50:25.855Z,101677.06
2023-03-15T08:54:27.698Z,101677.25
2023-03-15T08:58:29.540Z,101682.66
2023-03-15T09:02:31.278Z,101681.81
2023-03-15T09:06:33.054Z,101693.44
2023-03-15T09:10:34.873Z,101680.94
2023-03-15T09:14:36.760Z,101676.41
2023-03-15T09:18:40.652Z,101672.03
2023-03-15T09:22:51.829Z,101663.94
2023-03-15T09:26:53.649Z,101666.63
2023-03-15T09:30:55.388Z,101675.75
2023-03-15T09:34:57.390Z,101683.84
2023-03-15T09:38:59.555Z,101684.66
2023-03-15T09:43:07.055Z,101692.94
2023-03-15T09:47:36.925Z,101702.91
2023-03-15T09:52:02.900Z,101692.94
2023-03-15T09:56:18.867Z,101698.34
2023-03-15T10:00:25.981Z,101695.81
2023-03-15T10:04:30.864Z,101690.41
2023-03-15T10:08:32.804Z,101695.81
2023-03-15T10:12:41.524Z,101702.91
2023-03-15T10:16:46.938Z,101701.19
2023-03-15T10:20:58.998Z,101702.06
2023-03-15T10:25:12.019Z,101708.44
2023-03-15T10:29:25.747Z,101713.00
2023-03-15T10:33:37.513Z,101720.25
2023-03-15T10:37:39.269Z,101713.00
2023-03-15T10:41:47.437Z,101717.56
2023-03-15T10:46:00.638Z,101724.81
2023-03-15T10:50:02.388Z,101734.75
2023-03-15T10:54:25.103Z,101733.91
2023-03-15T10:58:31.579Z,101740.16
2023-03-15T11:02:33.484Z,101732.06
2023-03-15T11:07:00.778Z,101745.19
2023-03-15T11:11:02.548Z,101748.53
2023-03-15T11:15:16.263Z,101748.31
2023-03-15T11:19:22.305Z,101760.81
2023-03-15T11:23:28.967Z,101752.88
2023-03-15T11:27:31.960Z,101747.34
2023-03-15T11:31:34.273Z,101742.78
2023-03-15T11:35:44.520Z,101746.13
2023-03-15T11:40:11.585Z,101740.38
2023-03-15T11:44:33.792Z,101743.53
2023-03-15T11:48:44.391Z,101734.28
2023-03-15T11:52:52.977Z,101742.34
2023-03-15T11:57:03.503Z,101746.91
2023-03-15T12:01:07.254Z,101746.06
2023-03-15T12:05:46.858Z,101745.41
2023-03-15T12:09:56.369Z,101750.78
2023-03-15T12:14:01.132Z,101744.75
2023-03-15T12:18:07.021Z,101744.75
2023-03-15T12:22:17.578Z,101754.88
2023-03-15T12:26:26.550Z,101746.78
2023-03-15T12:30:38.569Z,101737.88
2023-03-15T12:35:09.034Z,101753.19
2023-03-15T12:39:16.643Z,101755.06
2023-03-15T12:43:35.614Z,101755.22
2023-03-15T12:47:52.427Z,101755.22
2023-03-15T12:52:04.772Z,101748.16
2023-03-15T12:56:18.716Z,101744.63
2023-03-15T13:00:27.538Z,101741.09
2023-03-15T13:04:31.029Z,101735.88
2023-03-15T13:09:06.821Z,101737.53
2023-03-15T13:13:30.236Z,101733.19
2023-03-15T13:17:42.592Z,101732.34
2023-03-15T13:22:18.303Z,101736.91
2023-03-15T13:26:33.223Z,101741.47
2023-03-15T13:30:47.208Z,101750.56
2023-03-15T13:34:49.987Z,101755.97
2023-03-15T13:38:54.843Z,101751.56
2023-03-15T13:43:00.940Z,101746.19
2023-03-15T13:47:02.650Z,101739.13
2023-03-15T13:51:08.339Z,101748.03
2023-03-15T13:55:14.502Z,101749.91
2023-03-15T13:59:17.690Z,101745.53
2023-03-15T14:03:23.050Z,101751.75
2023-03-15T14:07:35.619Z,101750.91
2023-03-15T14:11:40.943Z,101749.22
2023-03-15T14:15:44.390Z,101748.22
2023-03-15T14:19:56.887Z,101747.19
2023-03-15T14:24:07.044Z,101752.59
2023-03-15T14:28:15.263Z,101752.59
2023-03-15T14:32:30.923Z,101747.19
2023-03-15T14:36:44.710Z,101739.13
2023-03-15T14:40:50.106Z,101736.41
2023-03-15T14:44:52.362Z,101732.91
2023-03-15T14:48:54.116Z,101728.34
2023-03-15T14:52:56.811Z,101734.75
2023-03-15T14:56:58.570Z,101732.06
2023-03-15T15:01:02.860Z,101722.28
2023-03-15T15:05:34.490Z,101717.75
2023-03-15T15:09:38.451Z,101719.56
2023-03-15T15:13:42.540Z,101722.28
2023-03-15T15:17:44.398Z,101713.34
2023-03-15T15:21:46.239Z,101702.56
2023-03-15T15:25:50.678Z,101709.00
2023-03-15T15:29:52.477Z,101701.75
2023-03-15T15:33:55.773Z,101703.59
2023-03-15T15:37:57.665Z,101700.91
2023-03-15T15:41:59.410Z,101698.41
2023-03-15T15:46:02.015Z,101688.47
2023-03-15T15:50:04.126Z,101692.81
2023-03-15T15:54:06.164Z,101690.81
2023-03-15T15:58:11.969Z,101694.97
2023-03-15T16:02:22.334Z,101694.63
2023-03-15T16:06:24.394Z,101703.19
2023-03-15T16:10:36.032Z,101702.00
2023-03-15T16:14:37.771Z,101696.25
2023-03-15T16:18:39.481Z,101705.81
2023-03-15T16:22:45.433Z,101695.34
2023-03-15T16:26:48.429Z,101709.47
2023-03-15T16:30:50.327Z,101706.59
2023-03-15T16:34:53.451Z,101692.09
2023-03-15T16:38:55.634Z,101690.03
2023-03-15T16:42:57.715Z,101696.94
2023-03-15T16:46:59.396Z,101690.34
2023-03-15T16:51:01.065Z,101702.13
2023-03-15T16:55:03.020Z,101702.50
2023-03-15T16:59:04.973Z,101698.31
2023-03-15T17:03:08.251Z,101702.19
2023-03-15T17:07:11.737Z,101701.56
2023-03-15T17:11:14.003Z,101702.56
2023-03-15T17:15:20.387Z,101702.75
2023-03-15T17:19:22.270Z,101701.09
2023-03-15T17:23:24.494Z,101693.16
2023-03-15T17:27:35.461Z,101699.59
2023-03-15T17:31:37.898Z,101696.88
2023-03-15T17:35:54.173Z,101706.00
2023-03-15T17:39:56.914Z,101699.09
2023-03-15T17:43:59.270Z,101707.19
2023-03-15T17:48:02.110Z,101707.38
2023-03-15T17:52:04.815Z,101713.78
2023-03-15T17:56:07.436Z,101719.16
2023-03-15T18:00:11.362Z,101716.47
2023-03-15T18:04:13.873Z,101719.34
2023-03-15T18:08:19.747Z,101721.22
2023-03-15T18:12:22.376Z,101716.84
2023-03-15T18:16:24.675Z,101712.44
2023-03-15T18:20:28.212Z,101712.44
2023-03-15T18:24:32.035Z,101715.34
2023-03-15T18:28:34.099Z,101702.06
2023-03-15T18:32:35.945Z,101712.84
2023-03-15T18:36:37.724Z,101709.28
2023-03-15T18:40:39.600Z,101711.13
2023-03-15T18:44:41.457Z,101713.00
2023-03-15T18:48:45.456Z,101714.88
2023-03-15T18:52:47.536Z,101707.81
2023-03-15T18:56:49.659Z,101697.03
2023-03-15T19:00:51.496Z,101705.28
2023-03-15T19:04:53.573Z,101703.41
2023-03-15T19:08:55.481Z,101700.91
2023-03-15T19:12:57.201Z,101710.84
2023-03-15T19:16:59.877Z,101709.00
2023-03-15T19:21:02.648Z,101699.25
2023-03-15T19:25:06.157Z,101695.72
2023-03-15T19:29:07.968Z,101699.41
2023-03-15T19:33:10.196Z,101694.84
2023-03-15T19:37:12.048Z,101692.34
2023-03-15T19:41:14.565Z,101692.34
2023-03-15T19:45:17.673Z,101685.28
2023-03-15T19:49:19.664Z,101686.13
2023-03-15T19:53:21.474Z,101689.00
2023-03-15T19:57:23.253Z,101678.22
2023-03-15T20:01:25.071Z,101691.69
2023-03-15T20:05:26.933Z,101690.00
2023-03-15T20:09:29.293Z,101686.47
2023-03-15T20:13:31.750Z,101686.47
2023-03-15T20:17:33.428Z,101679.41
2023-03-15T20:21:35.992Z,101683.97
2023-03-15T20:25:37.693Z,101679.41
2023-03-15T20:29:39.410Z,101681.28
2023-03-15T20:33:41.881Z,101677.75
2023-03-15T20:37:43.715Z,101684.97
2023-03-15T20:41:45.457Z,101675.22
2023-03-15T20:45:47.336Z,101675.22
2023-03-15T20:49:49.063Z,101672.53
2023-03-15T20:53:51.065Z,101667.13
2023-03-15T20:57:53.546Z,101669.81
2023-03-15T21:01:55.846Z,101673.19
2023-03-15T21:05:57.943Z,101659.72
2023-03-15T21:10:00.552Z,101658.69
2023-03-15T21:14:02.789Z,101659.53
2023-03-15T21:18:04.882Z,101659.53
2023-03-15T21:22:07.181Z,101648.59
2023-03-15T21:26:11.449Z,101644.88
2023-03-15T21:30:14.326Z,101650.25
2023-03-15T21:34:16.421Z,101640.94
2023-03-15T21:38:18.568Z,101645.16
2023-03-15T21:42:20.878Z,101632.16
2023-03-15T21:46:24.103Z,101626.59
2023-03-15T21:50:26.877Z,101632.63
2023-03-15T21:54:29.509Z,101638.69
2023-03-15T21:58:32.024Z,101627.53
2023-03-15T22:02:33.801Z,101619.91
2023-03-15T22:06:35.567Z,101620.38
2023-03-15T22:10:37.356Z,101618.16
2023-03-15T22:14:40.117Z,101620.31
2023-03-15T22:18:41.876Z,101615.22
2023-03-15T22:22:45.313Z,101620.88
2023-03-15T22:26:47.058Z,101616.78
2023-03-15T22:30:50.086Z,101615.38
2023-03-15T22:34:51.781Z,101607.41
2023-03-15T22:38:53.508Z,101607.03
2023-03-15T22:42:57.308Z,101613.06
2023-03-15T22:46:59.065Z,101608.19
2023-03-15T22:51:03.072Z,101599.81
2023-03-15T22:55:06.486Z,101598.75
2023-03-15T22:59:08.275Z,101592.06
2023-03-15T23:03:09.997Z,101586.38
2023-03-15T23:07:12.597Z,101595.00
2023-03-15T23:11:14.487Z,101589.25
2023-03-15T23:15:16.265Z,101593.22
2023-03-15T23:19:17.992Z,101590.34
2023-03-15T23:23:19.912Z,101578.72
2023-03-15T23:27:26.166Z,101581.44
2023-03-15T23:31:28.103Z,101588.31
2023-03-15T23:35:31.259Z,101591.88
2023-03-15T23:39:33.069Z,101588.13
2023-03-15T23:43:34.847Z,101584.13
2023-03-15T23:47:36.641Z,101587.06
2023-03-15T23:51:38.846Z,101583.28
2023-03-15T23:55:41.343Z,101559.91
2023-03-15T23:59:43.531Z,101555.94
